Time;durP1;ratioP1;P1;durP2;ratioP2;P2;SDS_P1;SDS_P2;PMS_P1;PMS_P2;Temp;Humidity;BMP_temperature;BMP_pressure;BME280_temperature;BME280_humidity;BME280_pressure;Samples;Min_cycle;Max_cycle;Signal;HPM_P1;HPM_P2
2023/04/13 00:00:36;;;;;;;;;;;;;;;;;;5075387;28;19909;-68
2023/04/13 00:03:03;;;;;;;;;;;;;;;;;;5074999;28;19908;-68
2023/04/13 00:05:29;;;;;;;;;;;;;;;;;;5075341;28;20400;-68
2023/04/13 00:07:54;;;;;;;;;;;;;;;;;;5075591;28;19908;-68
2023/04/13 00:10:20;;;;;;;;;;;;;;;;;;5073488;28;19923;-68
2023/04/13 00:12:46;;;;;;;;;;;;;;;;;;5075176;28;20433;-68
2023/04/13 00:15:12;;;;;;;;;;;;;;;;;;5075476;28;20368;-69
2023/04/13 00:17:38;;;;;;;;;;;;;;;;;;5074750;28;19915;-68
2023/04/13 00:20:11;;;;;;;;;;;;;;;;;;5075359;28;19915;-68
2023/04/13 00:22:37;;;;;;;;;;;;;;;;;;5074833;28;20008;-69
2023/04/13 00:25:03;;;;;;;;;;;;;;;;;;5074629;28;19959;-66
2023/04/13 00:27:29;;;;;;;;;;;;;;;;;;5074881;28;19909;-67
2023/04/13 00:29:55;;;;;;;;;;;;;;;;;;5074602;28;19954;-67
2023/04/13 00:32:21;;;;;;;;;;;;;;;;;;5074366;28;20292;-67
2023/04/13 00:34:47;;;;;;;;;;;;;;;;;;5073424;28;19919;-67
2023/04/13 00:37:13;;;;;;;;;;;;;;;;;;5074686;28;19908;-67
2023/04/13 00:39:39;;;;;;;;;;;;;;;;;;5074201;28;20352;-68
2023/04/13 00:42:07;;;;;;;;;;;;;;;;;;5074780;28;19915;-67
2023/04/13 00:44:33;;;;;;;;;;;;;;;;;;5074003;28;19931;-67
2023/04/13 00:46:59;;;;;;;;;;;;;;;;;;5074380;28;20357;-67
2023/04/13 00:49:26;;;;;;;;;;;;;;;;;;5074377;28;19915;-68
2023/04/13 00:51:51;;;;;;;;;;;;;;;;;;5073757;28;19921;-67
2023/04/13 00:54:17;;;;;;;;;;;;;;;;;;5074687;28;20379;-67
2023/04/13 00:56:43;;;;;;;;;;;;;;;;;;5074359;28;19909;-67
2023/04/13 00:59:09;;;;;;;;;;;;;;;;;;5073909;28;19914;-67
2023/04/13 01:01:44;;;;;;;;;;;;;;;;;;5073938;28;19943;-68
2023/04/13 01:04:10;;;;;;;;;;;;;;;;;;5074247;28;19916;-67
2023/04/13 01:06:40;;;;;;;;;;;;;;;;;;5073743;28;19962;-67
2023/04/13 01:09:07;;;;;;;;;;;;;;;;;;5074104;28;19909;-67
2023/04/13 01:11:34;;;;;;;;;;;;;;;;;;5073955;28;19916;-68
2023/04/13 01:14:00;;;;;;;;;;;;;;;;;;5073642;28;20076;-67
2023/04/13 01:16:26;;;;;;;;;;;;;;;;;;5073999;28;19909;-67
2023/04/13 01:18:52;;;;;;;;;;;;;;;;;;5074080;28;19920;-67
2023/04/13 01:21:18;;;;;;;;;;;;;;;;;;5073554;28;19917;-67
2023/04/13 01:23:45;;;;;;;;;;;;;;;;;;5072824;28;19908;-67
2023/04/13 01:26:11;;;;;;;;;;;;;;;;;;5073889;28;19919;-67
2023/04/13 01:28:37;;;;;;;;;;;;;;;;;;5073401;28;20335;-67
2023/04/13 01:31:05;;;;;;;;;;;;;;;;;;5073901;28;19916;-67
2023/04/13 01:33:32;;;;;;;;;;;;;;;;;;5073757;28;19958;-68
2023/04/13 01:35:59;;;;;;;;;;;;;;;;;;5073316;28;19943;-67
2023/04/13 01:38:25;;;;;;;;;;;;;;;;;;5073727;28;19931;-67
2023/04/13 01:40:51;;;;;;;;;;;;;;;;;;5073259;28;20356;-67
2023/04/13 01:43:17;;;;;;;;;;;;;;;;;;5073573;28;20335;-67
2023/04/13 01:45:44;;;;;;;;;;;;;;;;;;5073808;28;19909;-67
2023/04/13 01:48:10;;;;;;;;;;;;;;;;;;5071868;28;20002;-67
2023/04/13 01:50:37;;;;;;;;;;;;;;;;;;5073296;28;20337;-67
2023/04/13 01:53:06;;;;;;;;;;;;;;;;;;5073487;28;20361;-67
2023/04/13 01:55:32;;;;;;;;;;;;;;;;;;5073127;28;19999;-67
2023/04/13 01:57:58;;;;;;;;;;;;;;;;;;5072236;28;19936;-67
2023/04/13 02:00:24;;;;;;;;;;;;;;;;;;5073493;28;19915;-67
2023/04/13 02:02:53;;;;;;;;;;;;;;;;;;5073007;28;19995;-67
2023/04/13 02:05:18;;;;;;;;;;;;;;;;;;5073449;28;19916;-67
2023/04/13 02:07:45;;;;;;;;;;;;;;;;;;5073420;28;19987;-67
2023/04/13 02:10:11;;;;;;;;;;;;;;;;;;5072927;28;19917;-67
2023/04/13 02:12:37;;;;;;;;;;;;;;;;;;5075335;28;19966;-68
2023/04/13 02:15:03;;;;;;;;;;;;;;;;;;5077436;28;19909;-67
2023/04/13 02:17:29;;;;;;;;;;;;;;;;;;5077010;28;19916;-68
2023/04/13 02:19:55;;;;;;;;;;;;;;;;;;5075966;28;19909;-68
2023/04/13 02:22:22;;;;;;;;;;;;;;;;;;5077218;28;19915;-68
2023/04/13 02:24:49;;;;;;;;;;;;;;;;;;5075538;28;19938;-68
2023/04/13 02:27:15;;;;;;;;;;;;;;;;;;5077180;28;20292;-67
2023/04/13 02:29:41;;;;;;;;;;;;;;;;;;5077522;28;19912;-68
2023/04/13 02:32:07;;;;;;;;;;;;;;;;;;5075261;28;20387;-68
2023/04/13 02:34:33;;;;;;;;;;;;;;;;;;5076940;28;19908;-67
2023/04/13 02:36:59;;;;;;;;;;;;;;;;;;5076362;28;19916;-67
2023/04/13 02:39:25;;;;;;;;;;;;;;;;;;5076789;28;19908;-67
2023/04/13 02:41:52;;;;;;;;;;;;;;;;;;5076764;28;20007;-68
2023/04/13 02:44:18;;;;;;;;;;;;;;;;;;5076594;28;19912;-68
2023/04/13 02:46:44;;;;;;;;;;;;;;;;;;5076686;28;19915;-67
2023/04/13 02:49:10;;;;;;;;;;;;;;;;;;5075413;28;19952;-68
2023/04/13 02:51:36;;;;;;;;;;;;;;;;;;5076068;28;20341;-67
2023/04/13 02:54:02;;;;;;;;;;;;;;;;;;5076604;28;19936;-67
2023/04/13 02:56:29;;;;;;;;;;;;;;;;;;5076652;28;19962;-67
2023/04/13 02:58:55;;;;;;;;;;;;;;;;;;5076194;28;19912;-67
2023/04/13 03:01:23;;;;;;;;;;;;;;;;;;5076387;28;19915;-67
2023/04/13 03:03:49;;;;;;;;;;;;;;;;;;5076469;28;20333;-68
2023/04/13 03:06:16;;;;;;;;;;;;;;;;;;5076019;28;19915;-68
2023/04/13 03:08:42;;;;;;;;;;;;;;;;;;5076439;28;20292;-68
2023/04/13 03:11:11;;;;;;;;;;;;;;;;;;5076342;28;19924;-68
2023/04/13 03:13:37;;;;;;;;;;;;;;;;;;5075957;28;19953;-68
2023/04/13 03:16:03;;;;;;;;;;;;;;;;;;5076115;28;20361;-68
2023/04/13 03:18:30;;;;;;;;;;;;;;;;;;5076213;28;19909;-68
2023/04/13 03:20:56;;;;;;;;;;;;;;;;;;5075812;28;19915;-67
2023/04/13 03:23:22;;;;;;;;;;;;;;;;;;5075558;28;20303;-67
2023/04/13 03:25:48;;;;;;;;;;;;;;;;;;5076064;28;19978;-67
2023/04/13 03:28:14;;;;;;;;;;;;;;;;;;5075724;28;19920;-68
2023/04/13 03:30:40;;;;;;;;;;;;;;;;;;5075861;28;19943;-67
2023/04/13 03:33:06;;;;;;;;;;;;;;;;;;5075593;28;19913;-67
2023/04/13 03:35:31;;;;;;;;;;;;;;;;;;5075340;28;19940;-67
2023/04/13 03:37:58;;;;;;;;;;;;;;;;;;5075731;28;19915;-68
2023/04/13 03:40:24;;;;;;;;;;;;;;;;;;5075676;28;19999;-68
2023/04/13 03:42:50;;;;;;;;;;;;;;;;;;5075747;28;20364;-68
2023/04/13 03:45:16;;;;;;;;;;;;;;;;;;5075705;28;19916;-68
2023/04/13 03:47:42;;;;;;;;;;;;;;;;;;5075693;28;20424;-68
2023/04/13 03:50:08;;;;;;;;;;;;;;;;;;5075462;28;19921;-67
2023/04/13 03:52:34;;;;;;;;;;;;;;;;;;5075583;28;19913;-68
2023/04/13 03:55:00;;;;;;;;;;;;;;;;;;5075162;28;19973;-68
2023/04/13 03:57:26;;;;;;;;;;;;;;;;;;5075984;28;19915;-68
2023/04/13 03:59:52;;;;;;;;;;;;;;;;;;5075424;28;19909;-67
2023/04/13 04:02:18;;;;;;;;;;;;;;;;;;5072381;28;19921;-67
2023/04/13 04:04:45;;;;;;;;;;;;;;;;;;5068442;28;19991;-67
2023/04/13 04:07:11;;;;;;;;;;;;;;;;;;5055291;28;19913;-66
2023/04/13 04:09:37;;;;;;;;;;;;;;;;;;5054825;28;19932;-68
2023/04/13 04:12:03;;;;;;;;;;;;;;;;;;5054887;28;20011;-67
2023/04/13 04:14:29;;;;;;;;;;;;;;;;;;5054934;28;19940;-68
2023/04/13 04:16:55;;;;;;;;;;;;;;;;;;5054705;28;19909;-67
2023/04/13 04:19:21;;;;;;;;;;;;;;;;;;5054972;28;20250;-67
2023/04/13 04:21:48;;;;;;;;;;;;;;;;;;5055024;28;20388;-67
2023/04/13 04:24:21;;;;;;;;;;;;;;;;;;5054561;28;20294;-67
2023/04/13 04:26:53;;;;;;;;;;;;;;;;;;5054766;28;19984;-67
2023/04/13 04:29:28;;;;;;;;;;;;;;;;;;5055130;28;19916;-67
2023/04/13 04:31:54;;;;;;;;;;;;;;;;;;5054615;28;20369;-67
2023/04/13 04:34:20;;;;;;;;;;;;;;;;;;5054009;28;19957;-67
2023/04/13 04:36:50;;;;;;;;;;;;;;;;;;5054043;28;19915;-68
2023/04/13 04:39:20;;;;;;;;;;;;;;;;;;5054721;28;20369;-67
2023/04/13 04:41:46;;;;;;;;;;;;;;;;;;5054570;28;19908;-68
2023/04/13 04:44:15;;;;;;;;;;;;;;;;;;5054175;28;20334;-69
2023/04/13 04:46:42;;;;;;;;;;;;;;;;;;5054469;28;19920;-69
2023/04/13 04:49:08;;;;;;;;;;;;;;;;;;5054425;28;20396;-69
2023/04/13 04:51:34;;;;;;;;;;;;;;;;;;5053828;28;19921;-69
2023/04/13 04:54:02;;;;;;;;;;;;;;;;;;5053245;28;19913;-69
2023/04/13 04:56:28;;;;;;;;;;;;;;;;;;5054465;28;19909;-68
2023/04/13 04:58:54;;;;;;;;;;;;;;;;;;5053972;28;19908;-69
2023/04/13 05:01:25;;;;;;;;;;;;;;;;;;5054288;28;19909;-68
2023/04/13 05:03:51;;;;;;;;;;;;;;;;;;5054486;28;19915;-69
2023/04/13 05:06:17;;;;;;;;;;;;;;;;;;5053815;28;19916;-68
2023/04/13 05:08:43;;;;;;;;;;;;;;;;;;5054104;28;19908;-68
2023/04/13 05:11:09;;;;;;;;;;;;;;;;;;5054056;28;19917;-69
2023/04/13 05:13:35;;;;;;;;;;;;;;;;;;5053582;28;19915;-69
2023/04/13 05:16:04;;;;;;;;;;;;;;;;;;5054054;28;19908;-69
2023/04/13 05:18:30;;;;;;;;;;;;;;;;;;5052477;28;19909;-70
2023/04/13 05:20:56;;;;;;;;;;;;;;;;;;5071841;28;19909;-70
2023/04/13 05:23:22;;;;;;;;;;;;;;;;;;5072103;28;20003;-70
2023/04/13 05:25:48;;;;;;;;;;;;;;;;;;5057173;28;19999;-68
2023/04/13 05:28:15;;;;;;;;;;;;;;;;;;5065802;28;19908;-67
2023/04/13 05:30:42;;;;;;;;;;;;;;;;;;5070136;28;19955;-66
2023/04/13 05:33:08;;;;;;;;;;;;;;;;;;5066800;28;19952;-67
2023/04/13 05:35:36;;;;;;;;;;;;;;;;;;5069939;28;19908;-66
2023/04/13 05:38:03;;;;;;;;;;;;;;;;;;5065438;28;19912;-66
2023/04/13 05:40:29;;;;;;;;;;;;;;;;;;5062740;28;19966;-66
2023/04/13 05:42:55;;;;;;;;;;;;;;;;;;5057998;28;19919;-63
2023/04/13 05:45:21;;;;;;;;;;;;;;;;;;5057471;28;20012;-64
2023/04/13 05:47:47;;;;;;;;;;;;;;;;;;5066526;28;20424;-65
2023/04/13 05:50:13;;;;;;;;;;;;;;;;;;5065573;28;19970;-66
2023/04/13 05:52:39;;;;;;;;;;;;;;;;;;5055606;28;20258;-65
2023/04/13 05:55:05;;;;;;;;;;;;;;;;;;5048198;28;20386;-65
2023/04/13 05:57:31;;;;;;;;;;;;;;;;;;5049715;28;20567;-65
2023/04/13 05:59:57;;;;;;;;;;;;;;;;;;5049059;28;20015;-65
2023/04/13 06:02:25;;;;;;;;;;;;;;;;;;5049898;28;19995;-65
2023/04/13 06:04:53;;;;;;;;;;;;;;;;;;5063948;28;19917;-65
2023/04/13 06:07:19;;;;;;;;;;;;;;;;;;5066160;28;19912;-65
2023/04/13 06:09:45;;;;;;;;;;;;;;;;;;5065072;28;19913;-66
2023/04/13 06:12:12;;;;;;;;;;;;;;;;;;5055740;28;21845;-66
2023/04/13 06:14:38;;;;;;;;;;;;;;;;;;5061851;28;20007;-65
2023/04/13 06:17:04;;;;;;;;;;;;;;;;;;5049916;28;19908;-64
2023/04/13 06:19:30;;;;;;;;;;;;;;;;;;5056694;28;19915;-64
2023/04/13 06:21:57;;;;;;;;;;;;;;;;;;5071368;28;20269;-64
2023/04/13 06:24:23;;;;;;;;;;;;;;;;;;5071449;28;19912;-63
2023/04/13 06:26:50;;;;;;;;;;;;;;;;;;5072413;28;19966;-64
2023/04/13 06:29:16;;;;;;;;;;;;;;;;;;5070192;28;19915;-64
2023/04/13 06:31:42;;;;;;;;;;;;;;;;;;5070244;28;20357;-63
2023/04/13 06:34:08;;;;;;;;;;;;;;;;;;5070189;28;20280;-64
2023/04/13 06:36:34;;;;;;;;;;;;;;;;;;5067701;28;20368;-65
2023/04/13 06:39:01;;;;;;;;;;;;;;;;;;5069900;28;19920;-63
2023/04/13 06:41:26;;;;;;;;;;;;;;;;;;5070159;28;19908;-64
2023/04/13 06:43:52;;;;;;;;;;;;;;;;;;5070488;28;19915;-63
2023/04/13 06:46:18;;;;;;;;;;;;;;;;;;5069974;28;19936;-63
2023/04/13 06:48:47;;;;;;;;;;;;;;;;;;5070432;28;19908;-63
2023/04/13 06:51:13;;;;;;;;;;;;;;;;;;5069700;28;20427;-63
2023/04/13 06:53:40;;;;;;;;;;;;;;;;;;5063310;28;20019;-64
2023/04/13 06:56:06;;;;;;;;;;;;;;;;;;5070386;28;20559;-66
2023/04/13 06:58:32;;;;;;;;;;;;;;;;;;5069788;28;19908;-64
2023/04/13 07:00:58;;;;;;;;;;;;;;;;;;5070562;28;19948;-65
2023/04/13 07:03:24;;;;;;;;;;;;;;;;;;5066749;28;20365;-66
2023/04/13 07:05:50;;;;;;;;;;;;;;;;;;5072380;28;19912;-68
2023/04/13 07:08:18;;;;;;;;;;;;;;;;;;5072270;28;19931;-67
2023/04/13 07:10:44;;;;;;;;;;;;;;;;;;5072397;28;20576;-65
2023/04/13 07:13:09;;;;;;;;;;;;;;;;;;5071860;28;20007;-65
2023/04/13 07:15:36;;;;;;;;;;;;;;;;;;5072803;28;20373;-64
2023/04/13 07:18:02;;;;;;;;;;;;;;;;;;5068647;28;19966;-65
2023/04/13 07:20:28;;;;;;;;;;;;;;;;;;5062119;28;19917;-66
2023/04/13 07:22:54;;;;;;;;;;;;;;;;;;5072404;28;19915;-64
2023/04/13 07:25:20;;;;;;;;;;;;;;;;;;5064008;28;20004;-65
2023/04/13 07:27:46;;;;;;;;;;;;;;;;;;5069865;28;19920;-65
2023/04/13 07:30:12;;;;;;;;;;;;;;;;;;5069837;28;19909;-65
2023/04/13 07:32:39;;;;;;;;;;;;;;;;;;5072046;28;19938;-66
2023/04/13 07:35:05;;;;;;;;;;;;;;;;;;5074365;28;19916;-65
2023/04/13 07:37:31;;;;;;;;;;;;;;;;;;5074888;28;19908;-65
2023/04/13 07:39:57;;;;;;;;;;;;;;;;;;5072534;28;19909;-64
2023/04/13 07:42:23;;;;;;;;;;;;;;;;;;5073040;28;19917;-64
2023/04/13 07:44:51;;;;;;;;;;;;;;;;;;5073034;28;19951;-64
2023/04/13 07:47:17;;;;;;;;;;;;;;;;;;5072836;28;19947;-64
2023/04/13 07:49:43;;;;;;;;;;;;;;;;;;5072947;28;19908;-65
2023/04/13 07:52:09;;;;;;;;;;;;;;;;;;5071244;28;19924;-63
2023/04/13 07:54:35;;;;;;;;;;;;;;;;;;5069184;28;19918;-64
2023/04/13 07:57:01;;;;;;;;;;;;;;;;;;5069949;28;19959;-65
2023/04/13 07:59:28;;;;;;;;;;;;;;;;;;5073373;28;20330;-63
2023/04/13 08:01:54;;;;;;;;;;;;;;;;;;5071509;28;19908;-64
2023/04/13 08:04:20;;;;;;;;;;;;;;;;;;5056010;28;19970;-64
2023/04/13 08:06:53;;;;;;;;;;;;;;;;;;5057394;28;19950;-64
2023/04/13 08:09:19;;;;;;;;;;;;;;;;;;5050904;28;20377;-65
2023/04/13 08:11:45;;;;;;;;;;;;;;;;;;5062002;28;19923;-65
2023/04/13 08:14:11;;;;;;;;;;;;;;;;;;5069425;28;19912;-64
2023/04/13 08:16:37;;;;;;;;;;;;;;;;;;5051112;28;19995;-64
2023/04/13 08:19:03;;;;;;;;;;;;;;;;;;5053292;28;19958;-64
2023/04/13 08:21:29;;;;;;;;;;;;;;;;;;5067421;28;19919;-65
2023/04/13 08:23:55;;;;;;;;;;;;;;;;;;5055239;28;19998;-64
2023/04/13 08:26:21;;;;;;;;;;;;;;;;;;5065156;28;19920;-64
2023/04/13 08:28:47;;;;;;;;;;;;;;;;;;5056907;28;19921;-64
2023/04/13 08:31:14;;;;;;;;;;;;;;;;;;5067312;28;19928;-64
2023/04/13 08:33:41;;;;;;;;;;;;;;;;;;5061296;28;20362;-65
2023/04/13 08:36:07;;;;;;;;;;;;;;;;;;5068899;28;19912;-65
2023/04/13 08:40:32;;;;;;;;;;;;;;;;;;5098136;27;20293;-63
2023/04/13 08:42:58;;;;;;;;;;;;;;;;;;5042959;28;20036;-64
2023/04/13 08:45:24;;;;;;;;;;;;;;;;;;5071344;28;20448;-65
2023/04/13 08:47:50;;;;;;;;;;;;;;;;;;5044216;28;19975;-64
2023/04/13 08:50:16;;;;;;;;;;;;;;;;;;5076290;28;19970;-64
2023/04/13 08:56:11;;;;;;;;;;;;;;;;;;5127132;27;19919;-64
2023/04/13 09:00:52;;;;;;;;;;;;;;;;;;5088094;28;20275;-67
2023/04/13 09:03:18;;;;;;;;;;;;;;;;;;5087760;28;19916;-65
2023/04/13 09:05:44;;;;;;;;;;;;;;;;;;5087392;28;20322;-65
2023/04/13 09:08:10;;;;;;;;;;;;;;;;;;5088762;28;19924;-64
2023/04/13 09:11:02;;;;;;;;;;;;;;;;;;5087858;27;19932;-65
2023/04/13 09:14:37;;;;;;;;;;;;;;;;;;5088603;27;19927;-63
2023/04/13 09:17:03;;;;;;;;;;;;;;;;;;5089494;28;19917;-66
2023/04/13 09:19:30;;;;;;;;;;;;;;;;;;5088350;28;19915;-66
2023/04/13 09:21:56;;;;;;;;;;;;;;;;;;5084165;28;19908;-67
2023/04/13 09:24:22;;;;;;;;;;;;;;;;;;5086759;28;19920;-66
2023/04/13 09:26:48;;;;;;;;;;;;;;;;;;5086028;28;19913;-68
2023/04/13 09:29:15;;;;;;;;;;;;;;;;;;5087365;28;19947;-67
2023/04/13 09:31:42;;;;;;;;;;;;;;;;;;5084912;28;19909;-67
2023/04/13 09:34:08;;;;;;;;;;;;;;;;;;5087692;28;20372;-67
2023/04/13 09:36:34;;;;;;;;;;;;;;;;;;5077787;28;19916;-67
2023/04/13 09:41:57;;;;;;;;;;;;;;;;;;5084377;27;19920;-67
2023/04/13 09:44:24;;;;;;;;;;;;;;;;;;5086491;28;20149;-68
2023/04/13 09:46:50;;;;;;;;;;;;;;;;;;5087939;28;19912;-68
2023/04/13 09:49:45;;;;;;;;;;;;;;;;;;5149986;27;20264;-66
2023/04/13 09:52:11;;;;;;;;;;;;;;;;;;5150509;27;19922;-66
2023/04/13 10:02:55;;;;;;;;;;;;;;;;;;5089138;27;20390;-66
2023/04/13 10:05:25;;;;;;;;;;;;;;;;;;5089768;28;19916;-65
2023/04/13 10:14:38;;;;;;;;;;;;;;;;;;5085742;27;19916;-65
2023/04/13 10:17:07;;;;;;;;;;;;;;;;;;5087908;28;19963;-64
2023/04/13 10:22:07;;;;;;;;;;;;;;;;;;4237145;27;25010261;-64
2023/04/13 10:27:24;;;;;;;;;;;;;;;;;;4532701;27;16784659;-64
2023/04/13 10:29:50;;;;;;;;;;;;;;;;;;5105994;28;20139;-65
2023/04/13 10:32:16;;;;;;;;;;;;;;;;;;5102888;28;20360;-66
2023/04/13 10:34:42;;;;;;;;;;;;;;;;;;5104046;28;19922;-64
2023/04/13 10:37:08;;;;;;;;;;;;;;;;;;5106084;28;19962;-63
2023/04/13 10:39:34;;;;;;;;;;;;;;;;;;5109504;28;19911;-64
2023/04/13 10:42:00;;;;;;;;;;;;;;;;;;5106948;28;19915;-64
2023/04/13 10:44:26;;;;;;;;;;;;;;;;;;5109978;28;19912;-64
2023/04/13 10:46:52;;;;;;;;;;;;;;;;;;5097474;28;19921;-65
2023/04/13 10:49:18;;;;;;;;;;;;;;;;;;5088671;28;19953;-64
2023/04/13 10:51:45;;;;;;;;;;;;;;;;;;5070912;28;19982;-65
2023/04/13 10:56:01;;;;;;;;;;;;;;;;;;5089361;27;19916;-64
2023/04/13 10:58:27;;;;;;;;;;;;;;;;;;5088608;28;19993;-64
2023/04/13 11:01:15;;;;;;;;;;;;;;;;;;5089865;27;19920;-64
2023/04/13 11:03:41;;;;;;;;;;;;;;;;;;5087661;28;20010;-64
2023/04/13 11:08:42;;;;;;;;;;;;;;;;;;5149730;27;19915;-64
2023/04/13 11:11:33;;;;;;;;;;;;;;;;;;5088339;27;20307;-64
2023/04/13 11:13:59;;;;;;;;;;;;;;;;;;5088192;28;20346;-64
2023/04/13 11:16:25;;;;;;;;;;;;;;;;;;5088700;28;20568;-64
2023/04/13 11:20:10;;;;;;;;;;;;;;;;;;5088633;27;19919;-63
2023/04/13 11:22:36;;;;;;;;;;;;;;;;;;5087725;28;20362;-64
2023/04/13 11:25:25;;;;;;;;;;;;;;;;;;5088787;27;19916;-63
2023/04/13 11:27:51;;;;;;;;;;;;;;;;;;5088646;28;20361;-64
2023/04/13 11:31:38;;;;;;;;;;;;;;;;;;5151393;27;20014;-63
2023/04/13 11:34:04;;;;;;;;;;;;;;;;;;5151118;27;19956;-63
2023/04/13 11:36:31;;;;;;;;;;;;;;;;;;5150687;27;19964;-63
2023/04/13 11:38:58;;;;;;;;;;;;;;;;;;5151280;27;19998;-66
2023/04/13 11:41:27;;;;;;;;;;;;;;;;;;5151288;27;20336;-65
2023/04/13 11:43:53;;;;;;;;;;;;;;;;;;5151066;27;19907;-65
2023/04/13 11:46:21;;;;;;;;;;;;;;;;;;5149596;27;19907;-66
2023/04/13 11:48:47;;;;;;;;;;;;;;;;;;5150900;27;19965;-66
2023/04/13 11:55:10;;;;;;;;;;;;;;;;;;5087877;27;19916;-66
2023/04/13 11:58:01;;;;;;;;;;;;;;;;;;5148362;27;19918;-65
2023/04/13 12:00:27;;;;;;;;;;;;;;;;;;5148081;27;19926;-66
2023/04/13 12:02:53;;;;;;;;;;;;;;;;;;5130944;27;19911;-65
2023/04/13 12:05:19;;;;;;;;;;;;;;;;;;5150913;27;19964;-65
2023/04/13 12:07:46;;;;;;;;;;;;;;;;;;5149172;27;19915;-65
2023/04/13 12:10:12;;;;;;;;;;;;;;;;;;5149872;27;19912;-64
2023/04/13 12:12:38;;;;;;;;;;;;;;;;;;5150469;27;19907;-65
2023/04/13 12:15:04;;;;;;;;;;;;;;;;;;5134024;27;19908;-66
2023/04/13 12:17:30;;;;;;;;;;;;;;;;;;5130701;28;20064;-66
2023/04/13 12:19:56;;;;;;;;;;;;;;;;;;5112320;28;19957;-65
2023/04/13 12:22:23;;;;;;;;;;;;;;;;;;5129975;28;20014;-66
2023/04/13 12:26:39;;;;;;;;;;;;;;;;;;5090421;28;20311;-65
2023/04/13 12:29:05;;;;;;;;;;;;;;;;;;5088663;28;19912;-64
2023/04/13 12:31:31;;;;;;;;;;;;;;;;;;5083487;28;20049;-65
2023/04/13 12:33:57;;;;;;;;;;;;;;;;;;5090457;28;20380;-66
2023/04/13 12:37:56;;;;;;;;;;;;;;;;;;5091068;27;19934;-65
2023/04/13 12:41:00;;;;;;;;;;;;;;;;;;5087683;27;19916;-67
2023/04/13 12:43:26;;;;;;;;;;;;;;;;;;5088164;28;19919;-67
2023/04/13 12:45:52;;;;;;;;;;;;;;;;;;5088847;28;19916;-68
2023/04/13 12:48:18;;;;;;;;;;;;;;;;;;5088240;28;19962;-67
2023/04/13 12:50:44;;;;;;;;;;;;;;;;;;5088207;28;20383;-67
2023/04/13 12:53:11;;;;;;;;;;;;;;;;;;5088727;28;19970;-67
2023/04/13 12:55:36;;;;;;;;;;;;;;;;;;5088915;28;19961;-66
2023/04/13 12:58:02;;;;;;;;;;;;;;;;;;5088392;28;19908;-66
2023/04/13 13:00:28;;;;;;;;;;;;;;;;;;5088754;28;20008;-66
2023/04/13 13:02:54;;;;;;;;;;;;;;;;;;5088299;28;19908;-66
2023/04/13 13:05:20;;;;;;;;;;;;;;;;;;5088683;28;19908;-66
2023/04/13 13:07:46;;;;;;;;;;;;;;;;;;5090373;28;19955;-67
2023/04/13 13:10:12;;;;;;;;;;;;;;;;;;5089946;28;19908;-66
2023/04/13 13:12:38;;;;;;;;;;;;;;;;;;5090667;28;19915;-67
2023/04/13 13:15:09;;;;;;;;;;;;;;;;;;5090588;28;19915;-67
2023/04/13 13:17:35;;;;;;;;;;;;;;;;;;5090186;28;20280;-67
2023/04/13 13:20:01;;;;;;;;;;;;;;;;;;5090679;28;19920;-67
2023/04/13 13:22:28;;;;;;;;;;;;;;;;;;5090936;28;20303;-67
2023/04/13 13:24:54;;;;;;;;;;;;;;;;;;5090013;28;19908;-67
2023/04/13 13:27:20;;;;;;;;;;;;;;;;;;5090402;28;19912;-67
2023/04/13 13:29:46;;;;;;;;;;;;;;;;;;5090206;28;19923;-67
2023/04/13 13:32:12;;;;;;;;;;;;;;;;;;5089993;28;20021;-67
2023/04/13 13:34:38;;;;;;;;;;;;;;;;;;5090178;28;20288;-67
2023/04/13 13:37:04;;;;;;;;;;;;;;;;;;5090223;28;20269;-67
2023/04/13 13:39:31;;;;;;;;;;;;;;;;;;5097717;28;19970;-65
2023/04/13 13:41:57;;;;;;;;;;;;;;;;;;5110444;28;20394;-66
2023/04/13 13:44:23;;;;;;;;;;;;;;;;;;5110204;28;19908;-66
2023/04/13 13:46:49;;;;;;;;;;;;;;;;;;5110100;28;20399;-67
2023/04/13 13:49:15;;;;;;;;;;;;;;;;;;5110582;28;19908;-65
2023/04/13 13:51:41;;;;;;;;;;;;;;;;;;5100286;28;19908;-65
2023/04/13 13:54:07;;;;;;;;;;;;;;;;;;5096207;28;19915;-66
2023/04/13 13:56:33;;;;;;;;;;;;;;;;;;5096940;28;19975;-67
2023/04/13 13:58:59;;;;;;;;;;;;;;;;;;5096394;28;20442;-66
2023/04/13 14:01:25;;;;;;;;;;;;;;;;;;5096028;28;20364;-66
2023/04/13 14:03:51;;;;;;;;;;;;;;;;;;5078217;28;19985;-67
2023/04/13 14:06:17;;;;;;;;;;;;;;;;;;5095883;28;19914;-67
2023/04/13 14:08:43;;;;;;;;;;;;;;;;;;5096336;28;19931;-66
2023/04/13 14:11:10;;;;;;;;;;;;;;;;;;5096352;28;19908;-66
2023/04/13 14:13:36;;;;;;;;;;;;;;;;;;5096102;28;19912;-67
2023/04/13 14:16:02;;;;;;;;;;;;;;;;;;5096239;28;19938;-67
2023/04/13 14:18:28;;;;;;;;;;;;;;;;;;5096243;28;19931;-67
2023/04/13 14:20:54;;;;;;;;;;;;;;;;;;5095651;28;19916;-66
2023/04/13 14:23:20;;;;;;;;;;;;;;;;;;5096235;28;19919;-66
2023/04/13 14:25:46;;;;;;;;;;;;;;;;;;5095933;28;19908;-66
2023/04/13 14:28:12;;;;;;;;;;;;;;;;;;5095578;28;19908;-66
2023/04/13 14:30:38;;;;;;;;;;;;;;;;;;5096048;28;19993;-66
2023/04/13 14:33:04;;;;;;;;;;;;;;;;;;5096000;28;19912;-67
2023/04/13 14:35:30;;;;;;;;;;;;;;;;;;5095308;28;19930;-67
2023/04/13 14:37:56;;;;;;;;;;;;;;;;;;5095585;28;19908;-67
2023/04/13 14:40:23;;;;;;;;;;;;;;;;;;5095457;28;19959;-67
2023/04/13 14:42:49;;;;;;;;;;;;;;;;;;5076932;28;19915;-67
2023/04/13 14:45:15;;;;;;;;;;;;;;;;;;5093573;28;20201;-66
2023/04/13 14:47:41;;;;;;;;;;;;;;;;;;5094938;28;19912;-66
2023/04/13 14:50:08;;;;;;;;;;;;;;;;;;5095036;28;19973;-68
2023/04/13 14:52:34;;;;;;;;;;;;;;;;;;5093872;28;19923;-67
2023/04/13 14:55:00;;;;;;;;;;;;;;;;;;5095264;28;19915;-67
2023/04/13 14:57:26;;;;;;;;;;;;;;;;;;5094892;28;19947;-67
2023/04/13 14:59:52;;;;;;;;;;;;;;;;;;5095234;28;20288;-67
2023/04/13 15:02:18;;;;;;;;;;;;;;;;;;5094504;28;20308;-66
2023/04/13 15:04:44;;;;;;;;;;;;;;;;;;5094671;28;19908;-66
2023/04/13 15:07:10;;;;;;;;;;;;;;;;;;5095204;28;19912;-67
2023/04/13 15:09:37;;;;;;;;;;;;;;;;;;5094756;28;20003;-67
2023/04/13 15:12:03;;;;;;;;;;;;;;;;;;5077029;28;20295;-66
2023/04/13 15:14:30;;;;;;;;;;;;;;;;;;5095170;28;20379;-66
2023/04/13 15:16:56;;;;;;;;;;;;;;;;;;5094603;28;19908;-67
2023/04/13 15:19:22;;;;;;;;;;;;;;;;;;5094939;28;20288;-65
2023/04/13 15:21:48;;;;;;;;;;;;;;;;;;5094855;28;19908;-66
2023/04/13 15:24:14;;;;;;;;;;;;;;;;;;5094472;28;19961;-66
2023/04/13 15:26:39;;;;;;;;;;;;;;;;;;5094781;28;19916;-67
2023/04/13 15:29:05;;;;;;;;;;;;;;;;;;5076597;28;19908;-66
2023/04/13 15:31:31;;;;;;;;;;;;;;;;;;5094495;28;19908;-67
2023/04/13 15:33:57;;;;;;;;;;;;;;;;;;5094642;28;20390;-66
2023/04/13 15:36:23;;;;;;;;;;;;;;;;;;5094630;28;20372;-66
2023/04/13 15:38:49;;;;;;;;;;;;;;;;;;5094262;28;19919;-66
2023/04/13 15:41:15;;;;;;;;;;;;;;;;;;5094823;28;20356;-69
2023/04/13 15:43:42;;;;;;;;;;;;;;;;;;5076933;28;19908;-67
2023/04/13 15:46:08;;;;;;;;;;;;;;;;;;5094170;28;20368;-67
2023/04/13 15:48:34;;;;;;;;;;;;;;;;;;5094471;28;19961;-67
2023/04/13 15:51:00;;;;;;;;;;;;;;;;;;5094474;28;19912;-66
2023/04/13 15:53:26;;;;;;;;;;;;;;;;;;5093996;28;20362;-67
2023/04/13 15:55:52;;;;;;;;;;;;;;;;;;5076285;28;20383;-66
2023/04/13 15:58:18;;;;;;;;;;;;;;;;;;5094312;28;19909;-66
2023/04/13 16:00:44;;;;;;;;;;;;;;;;;;5093791;28;20038;-67
2023/04/13 16:03:10;;;;;;;;;;;;;;;;;;5094396;28;19912;-67
2023/04/13 16:05:36;;;;;;;;;;;;;;;;;;5094168;28;19908;-66
2023/04/13 16:08:02;;;;;;;;;;;;;;;;;;5093827;28;19990;-67
2023/04/13 16:10:28;;;;;;;;;;;;;;;;;;5094271;28;19909;-67
2023/04/13 16:12:54;;;;;;;;;;;;;;;;;;5093769;28;19950;-68
2023/04/13 16:15:21;;;;;;;;;;;;;;;;;;5093852;28;19930;-67
2023/04/13 16:17:47;;;;;;;;;;;;;;;;;;5094148;28;19916;-67
2023/04/13 16:22:45;;;;;;;;;;;;;;;;;;5094106;28;19949;-68
2023/04/13 16:27:16;;;;;;;;;;;;;;;;;;5091325;27;19916;-69
2023/04/13 16:29:42;;;;;;;;;;;;;;;;;;5091233;28;19920;-67
2023/04/13 16:35:58;;;;;;;;;;;;;;;;;;5090428;28;19912;-67
2023/04/13 16:42:10;;;;;;;;;;;;;;;;;;5090755;27;19917;-66
2023/04/13 16:47:06;;;;;;;;;;;;;;;;;;5091236;27;19923;-66
2023/04/13 16:50:47;;;;;;;;;;;;;;;;;;5051014;28;19924;-68
2023/04/13 16:53:15;;;;;;;;;;;;;;;;;;5050865;28;20344;-66
2023/04/13 16:55:41;;;;;;;;;;;;;;;;;;5049271;28;19915;-67
2023/04/13 16:58:07;;;;;;;;;;;;;;;;;;5049643;28;20397;-67
2023/04/13 17:01:03;;;;;;;;;;;;;;;;;;5091326;27;19912;-67
2023/04/13 17:05:27;;;;;;;;;;;;;;;;;;5173925;27;20413;-66
2023/04/13 17:07:53;;;;;;;;;;;;;;;;;;5173696;27;20345;-65
2023/04/13 17:10:19;;;;;;;;;;;;;;;;;;5172951;27;19989;-66
2023/04/13 17:12:46;;;;;;;;;;;;;;;;;;5173478;27;19959;-65
2023/04/13 17:16:17;;;;;;;;;;;;;;;;;;5090888;27;19917;-65
2023/04/13 17:18:43;;;;;;;;;;;;;;;;;;5091031;28;20007;-65
2023/04/13 17:22:57;;;;;;;;;;;;;;;;;;5091420;27;19916;-66
2023/04/13 17:25:22;;;;;;;;;;;;;;;;;;5090707;28;20003;-65
2023/04/13 17:27:48;;;;;;;;;;;;;;;;;;5090841;28;20275;-67
2023/04/13 17:30:14;;;;;;;;;;;;;;;;;;5090794;28;20345;-66
2023/04/13 17:34:46;;;;;;;;;;;;;;;;;;5091810;27;19916;-67
2023/04/13 17:37:12;;;;;;;;;;;;;;;;;;5090975;28;20321;-66
2023/04/13 17:39:46;;;;;;;;;;;;;;;;;;5091121;28;19962;-66
2023/04/13 17:42:12;;;;;;;;;;;;;;;;;;5089822;28;19954;-66
2023/04/13 17:46:30;;;;;;;;;;;;;;;;;;5091397;27;19923;-65
2023/04/13 17:48:55;;;;;;;;;;;;;;;;;;5091225;28;20284;-65
2023/04/13 17:52:54;;;;;;;;;;;;;;;;;;5090698;27;19916;-65
2023/04/13 17:55:20;;;;;;;;;;;;;;;;;;5092712;28;20400;-66